LTFJ/SAW METAR and TAF weather

Enter ICAO airport designator
Station Type Date Time Source
LTFJ METAR 2019/08/26 07:50 UTC NOAA

LTFJ 260750Z 05016KT 9999 SCT025 29/21 Q1016 NOSIG


Station Type Date Time Source
LTFJ Decoded METAR 2019/08/26 07:50 UTC NOAA

Station name not available
Aug 26, 2019 - 03:50 AM EDT / 2019.08.26 0750 UTC
Wind: from the NE (050 degrees) at 18 MPH (16 KT):0
Visibility: greater than 7 mile(s):0
Sky conditions: partly cloudy
Temperature: 84 F (29 C)
Dew Point: 69 F (21 C)
Relative Humidity: 62%
Pressure (altimeter): 30.00 in. Hg (1016 hPa)
ob: LTFJ 260750Z 05016KT 9999 SCT025 29/21 Q1016 NOSIG
cycle: 8

Station Type Date Time Source
LTFJ TAF 2019/08/26 06:03 UTC NOAA

TAF LTFJ 260440Z 2606/2706 03015KT 9999 BKN012
BECMG 2606/2608 SCT020
BECMG 2608/2611 04018G28KT CAVOK
BECMG 2616/2619 03012KT SCT010
BECMG 2622/2701 4000 BR BKN009
BECMG 2703/2706 9999 NSW

Example: see airport list